createdAt,value
2018-12-22T00:01:05.949Z,6.50
2018-12-22T00:03:34.765Z,8.40
2018-12-22T00:06:04.181Z,7.50
2018-12-22T00:08:32.726Z,8.93
2018-12-22T00:11:02.624Z,6.97
2018-12-22T00:13:31.092Z,8.07
2018-12-22T00:15:59.579Z,11.00
2018-12-22T00:18:28.229Z,11.43
2018-12-22T00:20:56.761Z,10.53
2018-12-22T00:23:25.360Z,12.87
2018-12-22T00:25:53.907Z,25.73
2018-12-22T00:28:22.587Z,12.70
2018-12-22T00:30:51.273Z,12.83
2018-12-22T00:33:19.942Z,12.30
2018-12-22T00:35:48.424Z,13.97
2018-12-22T00:38:16.880Z,13.23
2018-12-22T00:40:45.436Z,12.33
2018-12-22T00:43:13.919Z,11.13
2018-12-22T00:45:42.411Z,11.53
2018-12-22T00:48:11.225Z,13.23
2018-12-22T00:50:40.068Z,12.10
2018-12-22T00:53:08.629Z,14.83
2018-12-22T00:55:37.128Z,11.90
2018-12-22T00:58:05.675Z,16.17
2018-12-22T01:00:34.178Z,13.23
2018-12-22T01:03:03.841Z,11.40
2018-12-22T01:05:32.315Z,12.80
2018-12-22T01:08:00.761Z,18.00
2018-12-22T01:10:31.350Z,13.17
2018-12-22T01:12:59.832Z,15.23
2018-12-22T01:15:28.351Z,15.43
2018-12-22T01:17:56.832Z,13.50
2018-12-22T01:20:25.426Z,16.73
2018-12-22T01:22:54.173Z,15.07
2018-12-22T01:25:22.655Z,15.00
2018-12-22T01:27:51.135Z,16.13
2018-12-22T01:30:20.330Z,15.40
2018-12-22T01:32:48.863Z,16.60
2018-12-22T01:35:18.177Z,15.43
2018-12-22T01:37:46.648Z,21.10
2018-12-22T01:40:15.268Z,20.13
2018-12-22T01:42:43.718Z,16.93
2018-12-22T01:45:12.284Z,19.93
2018-12-22T01:47:40.787Z,16.90
2018-12-22T01:50:09.495Z,17.77
2018-12-22T01:52:37.951Z,18.93
2018-12-22T01:55:07.142Z,17.60
2018-12-22T01:57:35.847Z,20.27
2018-12-22T02:00:05.058Z,20.10
2018-12-22T02:02:33.583Z,17.63
2018-12-22T02:05:04.184Z,22.00
2018-12-22T02:07:32.743Z,19.90
2018-12-22T02:10:02.640Z,21.53
2018-12-22T02:12:31.135Z,22.10
2018-12-22T02:14:59.591Z,17.77
2018-12-22T02:17:28.279Z,19.00
2018-12-22T02:19:56.787Z,19.93
2018-12-22T02:22:25.341Z,20.40
2018-12-22T02:24:54.029Z,19.97
2018-12-22T02:27:22.523Z,20.87
2018-12-22T02:29:51.000Z,21.07
2018-12-22T02:32:19.490Z,26.83
2018-12-22T02:34:48.074Z,21.33
2018-12-22T02:37:16.596Z,23.00
2018-12-22T02:39:45.159Z,19.73
2018-12-22T02:42:13.754Z,19.23
2018-12-22T02:44:42.374Z,22.57
2018-12-22T02:47:11.158Z,21.10
2018-12-22T02:49:39.635Z,22.13
2018-12-22T02:52:08.131Z,21.07
2018-12-22T02:54:36.998Z,20.90
2018-12-22T02:57:05.605Z,22.10
2018-12-22T02:59:34.109Z,17.77
2018-12-22T03:02:03.777Z,23.90
2018-12-22T03:04:32.419Z,21.30
2018-12-22T03:07:00.950Z,24.17
2018-12-22T03:09:29.900Z,23.37
2018-12-22T03:11:58.411Z,21.50
2018-12-22T03:14:26.869Z,27.07
2018-12-22T03:16:55.429Z,22.67
2018-12-22T03:19:24.018Z,23.17
2018-12-22T03:21:52.511Z,27.73
2018-12-22T03:24:21.453Z,22.20
2018-12-22T03:26:49.932Z,20.90
2018-12-22T03:29:18.427Z,22.30
2018-12-22T03:31:46.907Z,21.40
2018-12-22T03:34:15.679Z,22.67
2018-12-22T03:36:44.251Z,20.43
2018-12-22T03:39:12.724Z,20.30
2018-12-22T03:41:41.472Z,24.83
2018-12-22T03:44:10.520Z,22.33
2018-12-22T03:46:39.036Z,22.67
2018-12-22T03:49:07.996Z,21.40
2018-12-22T03:51:36.497Z,23.70
2018-12-22T03:54:06.624Z,23.13
2018-12-22T03:56:35.442Z,24.93
2018-12-22T03:59:05.238Z,22.70
2018-12-22T04:01:34.255Z,25.80
2018-12-22T04:04:03.849Z,23.53
2018-12-22T04:06:35.203Z,25.77
2018-12-22T04:09:09.115Z,23.77
2018-12-22T04:11:37.259Z,25.10
2018-12-22T04:14:06.338Z,29.57
2018-12-22T04:16:35.419Z,28.10
2018-12-22T04:19:06.242Z,31.13
2018-12-22T04:21:34.736Z,27.13
2018-12-22T04:24:07.385Z,31.13
2018-12-22T04:26:35.830Z,32.07
2018-12-22T04:29:05.498Z,28.63
2018-12-22T04:31:34.037Z,30.13
2018-12-22T04:34:04.101Z,28.77
2018-12-22T04:36:32.687Z,33.57
2018-12-22T04:39:02.812Z,28.93
2018-12-22T04:41:31.529Z,33.53
2018-12-22T04:44:00.099Z,33.97
2018-12-22T04:46:28.663Z,34.53
2018-12-22T04:48:57.169Z,32.60
2018-12-22T04:51:25.642Z,33.43
2018-12-22T04:53:54.206Z,30.03
2018-12-22T04:56:22.820Z,33.07
2018-12-22T04:58:51.489Z,30.30
2018-12-22T05:01:20.196Z,30.63
2018-12-22T05:03:48.686Z,31.83
2018-12-22T05:06:17.158Z,26.67
2018-12-22T05:08:45.934Z,31.77
2018-12-22T05:11:14.402Z,34.20
2018-12-22T05:13:42.951Z,32.70
2018-12-22T05:16:11.449Z,37.97
2018-12-22T05:18:40.316Z,34.23
2018-12-22T05:21:08.915Z,33.27
2018-12-22T05:23:37.529Z,37.03
2018-12-22T05:26:06.026Z,29.23
2018-12-22T05:28:34.496Z,30.90
2018-12-22T05:31:04.552Z,39.87
2018-12-22T05:33:33.031Z,30.03
2018-12-22T05:36:03.083Z,34.93
2018-12-22T05:38:31.586Z,33.47
2018-12-22T05:41:00.046Z,32.27
2018-12-22T05:43:28.795Z,32.33
2018-12-22T05:45:57.319Z,43.40
2018-12-22T05:48:25.801Z,29.23
2018-12-22T05:50:54.303Z,32.50
2018-12-22T05:53:22.876Z,30.40
2018-12-22T05:55:51.476Z,26.37
2018-12-22T05:58:21.015Z,25.37
2018-12-22T06:00:49.810Z,26.00
2018-12-22T06:03:19.343Z,23.63
2018-12-22T06:05:47.868Z,21.23
2018-12-22T06:08:16.397Z,23.10
2018-12-22T06:10:45.262Z,18.27
2018-12-22T06:13:13.877Z,21.67
2018-12-22T06:15:42.356Z,21.23
2018-12-22T06:18:10.854Z,21.07
2018-12-22T06:20:39.412Z,22.47
2018-12-22T06:23:07.889Z,17.57
2018-12-22T06:25:36.612Z,15.50
2018-12-22T06:28:05.122Z,12.50
2018-12-22T06:30:33.650Z,15.00
2018-12-22T06:33:03.336Z,12.97
2018-12-22T06:35:31.903Z,14.80
2018-12-22T06:38:00.365Z,13.80
2018-12-22T06:40:28.860Z,11.23
2018-12-22T06:42:57.663Z,13.70
2018-12-22T06:45:26.181Z,12.47
2018-12-22T06:47:54.738Z,12.93
2018-12-22T06:50:23.289Z,10.07
2018-12-22T06:52:51.790Z,9.20
2018-12-22T06:55:20.283Z,8.10
2018-12-22T06:57:48.765Z,7.47
2018-12-22T07:00:17.909Z,10.43
2018-12-22T07:02:46.945Z,8.67
2018-12-22T07:05:15.491Z,8.60
2018-12-22T07:07:44.186Z,8.87
2018-12-22T07:10:12.956Z,7.90
2018-12-22T07:12:41.777Z,8.57
2018-12-22T07:15:10.388Z,8.33
2018-12-22T07:17:39.084Z,8.40
2018-12-22T07:20:07.611Z,8.03
2018-12-22T07:22:36.089Z,5.77
2018-12-22T07:25:05.393Z,7.83
2018-12-22T07:27:34.006Z,8.37
2018-12-22T07:30:03.818Z,9.43
2018-12-22T07:32:32.312Z,9.07
2018-12-22T07:35:00.821Z,8.00
2018-12-22T07:37:29.329Z,10.83
2018-12-22T07:39:57.847Z,8.73
2018-12-22T07:42:26.446Z,9.03
2018-12-22T07:44:54.932Z,10.03
2018-12-22T07:47:23.409Z,9.83
2018-12-22T07:49:51.917Z,12.20
2018-12-22T07:52:20.402Z,9.13
2018-12-22T07:54:49.050Z,10.07
2018-12-22T07:57:17.566Z,13.50
2018-12-22T07:59:46.029Z,14.63
2018-12-22T08:02:14.507Z,16.47
2018-12-22T08:04:43.004Z,13.40
2018-12-22T08:07:11.480Z,16.20
2018-12-22T08:09:40.311Z,15.40
2018-12-22T08:12:08.797Z,15.97
2018-12-22T08:14:37.529Z,13.13
2018-12-22T08:17:06.090Z,14.00
2018-12-22T08:19:34.700Z,14.50
2018-12-22T08:22:05.469Z,17.10
2018-12-22T08:24:34.166Z,14.73
2018-12-22T08:27:03.733Z,17.53
2018-12-22T08:29:32.223Z,17.80
2018-12-22T08:32:00.698Z,14.50
2018-12-22T08:34:29.179Z,15.23
2018-12-22T08:36:57.687Z,15.67
2018-12-22T08:39:26.186Z,13.90
2018-12-22T08:41:54.799Z,15.73
2018-12-22T08:44:23.347Z,11.23
2018-12-22T08:46:51.950Z,8.80
2018-12-22T08:49:20.457Z,10.17
2018-12-22T08:51:48.983Z,12.50
2018-12-22T08:54:17.516Z,11.83
2018-12-22T08:56:46.087Z,11.10
2018-12-22T08:59:14.618Z,13.20
2018-12-22T09:01:43.130Z,13.90
2018-12-22T09:04:11.817Z,8.70
2018-12-22T09:06:40.352Z,7.00
2018-12-22T09:09:10.584Z,15.00
2018-12-22T09:11:39.057Z,12.60
2018-12-22T09:14:07.820Z,18.30
2018-12-22T09:16:36.311Z,11.43
2018-12-22T09:19:05.910Z,12.07
2018-12-22T09:21:34.545Z,13.93
2018-12-22T09:24:05.380Z,10.50
2018-12-22T09:26:33.925Z,12.30
2018-12-22T09:29:04.346Z,10.67
2018-12-22T09:31:33.214Z,12.93
2018-12-22T09:34:13.063Z,11.67
2018-12-22T09:36:35.518Z,14.47
2018-12-22T09:39:08.211Z,11.13
2018-12-22T09:41:36.703Z,11.70
2018-12-22T09:44:05.932Z,10.30
2018-12-22T09:46:34.429Z,10.80
2018-12-22T09:49:05.398Z,12.97
2018-12-22T09:51:34.413Z,11.80
2018-12-22T09:54:07.934Z,12.73
2018-12-22T09:56:36.428Z,11.03
2018-12-22T09:59:06.549Z,9.43
2018-12-22T10:01:35.509Z,10.73
2018-12-22T10:04:05.155Z,17.00
2018-12-22T10:06:33.745Z,10.93
2018-12-22T10:09:05.435Z,14.30
2018-12-22T10:11:34.077Z,14.90
2018-12-22T10:14:04.311Z,14.03
2018-12-22T10:16:32.862Z,15.90
2018-12-22T10:19:03.087Z,13.60
2018-12-22T10:21:33.266Z,14.60
2018-12-22T10:24:03.200Z,17.67
2018-12-22T10:26:31.698Z,18.07
2018-12-22T10:29:00.272Z,18.20
2018-12-22T10:31:28.788Z,17.13
2018-12-22T10:33:58.115Z,15.57
2018-12-22T10:36:26.975Z,20.53
2018-12-22T10:38:55.581Z,17.23
2018-12-22T10:41:24.151Z,20.60
2018-12-22T10:43:52.618Z,20.73
2018-12-22T10:46:21.714Z,15.20
2018-12-22T10:48:50.218Z,14.83
2018-12-22T10:51:24.200Z,19.23
2018-12-22T10:53:49.678Z,14.70
2018-12-22T10:56:18.743Z,18.10
2018-12-22T10:58:47.290Z,18.37
2018-12-22T11:01:15.819Z,13.63
2018-12-22T11:03:44.340Z,16.70
2018-12-22T11:06:12.948Z,11.53
2018-12-22T11:08:42.009Z,14.23
2018-12-22T11:11:10.723Z,14.33
2018-12-22T11:13:39.239Z,13.83
2018-12-22T11:16:07.771Z,13.30
2018-12-22T11:18:36.414Z,10.27
2018-12-22T11:21:07.066Z,15.17
2018-12-22T11:23:35.633Z,16.70
2018-12-22T11:26:05.181Z,14.07
2018-12-22T11:28:33.713Z,11.03
2018-12-22T11:31:04.237Z,10.40
2018-12-22T11:33:32.825Z,13.17
2018-12-22T11:36:02.846Z,11.13
2018-12-22T11:38:31.423Z,11.00
2018-12-22T11:41:00.024Z,12.40
2018-12-22T11:43:28.519Z,21.57
2018-12-22T11:46:05.086Z,11.47
2018-12-22T11:48:39.667Z,13.73
2018-12-22T11:51:08.917Z,9.93
2018-12-22T11:53:38.454Z,8.60
2018-12-22T11:56:06.948Z,13.27
2018-12-22T11:58:35.419Z,12.80
2018-12-22T12:01:04.814Z,8.57
2018-12-22T12:03:33.319Z,8.17
2018-12-22T12:06:02.425Z,9.50
2018-12-22T12:08:30.974Z,8.63
2018-12-22T12:11:00.556Z,13.93
2018-12-22T12:13:29.276Z,7.77
2018-12-22T12:16:21.201Z,8.50
2018-12-22T12:19:09.170Z,10.60
2018-12-22T12:21:37.631Z,9.10
2018-12-22T12:24:06.083Z,9.67
2018-12-22T12:26:34.594Z,10.37
2018-12-22T12:29:04.094Z,12.47
2018-12-22T12:31:32.591Z,10.13
2018-12-22T12:34:02.837Z,12.43
2018-12-22T12:36:31.318Z,11.67
2018-12-22T12:38:59.892Z,11.90
2018-12-22T12:41:28.510Z,15.03
2018-12-22T12:43:56.988Z,11.27
2018-12-22T12:46:31.961Z,8.27
2018-12-22T12:49:00.473Z,15.03
2018-12-22T12:51:29.074Z,10.50
2018-12-22T12:53:57.579Z,11.93
2018-12-22T12:56:26.375Z,8.40
2018-12-22T12:58:54.961Z,10.40
2018-12-22T13:01:24.414Z,11.67
2018-12-22T13:03:53.161Z,7.53
2018-12-22T13:06:22.067Z,11.90
2018-12-22T13:08:50.571Z,10.93
2018-12-22T13:11:19.062Z,7.27
2018-12-22T13:13:53.953Z,9.67
2018-12-22T13:16:22.444Z,11.07
2018-12-22T13:18:50.918Z,7.80
2018-12-22T13:21:19.654Z,6.60
2018-12-22T13:23:48.252Z,9.00
2018-12-22T13:26:16.726Z,11.57
2018-12-22T13:28:45.248Z,13.77
2018-12-22T13:31:14.843Z,10.40
2018-12-22T13:33:43.371Z,11.57
2018-12-22T13:36:11.866Z,7.87
2018-12-22T13:38:45.555Z,8.37
2018-12-22T13:41:14.159Z,9.47
2018-12-22T13:43:42.952Z,9.47
2018-12-22T13:46:13.157Z,6.30
2018-12-22T13:48:41.814Z,5.97
2018-12-22T13:51:10.772Z,7.37
2018-12-22T13:53:39.494Z,9.00
2018-12-22T13:56:07.988Z,6.93
2018-12-22T13:58:36.484Z,6.17
2018-12-22T14:01:10.671Z,7.70
2018-12-22T14:03:41.876Z,10.37
2018-12-22T14:06:17.006Z,6.37
2018-12-22T14:08:45.740Z,5.83
2018-12-22T14:11:14.502Z,5.47
2018-12-22T14:13:42.961Z,7.77
2018-12-22T14:16:17.159Z,7.00
2018-12-22T14:18:54.874Z,12.67
2018-12-22T14:21:23.366Z,6.83
2018-12-22T14:24:12.935Z,4.60
2018-12-22T14:26:41.509Z,8.00
2018-12-22T14:29:09.967Z,8.10
2018-12-22T14:31:38.455Z,3.87
2018-12-22T14:34:11.710Z,6.00
2018-12-22T14:36:40.178Z,4.37
2018-12-22T14:39:09.315Z,10.33
2018-12-22T14:41:37.811Z,5.17
2018-12-22T14:44:06.499Z,6.23
2018-12-22T14:46:35.863Z,8.10
2018-12-22T14:49:05.251Z,5.60
2018-12-22T14:51:33.709Z,6.17
2018-12-22T14:54:03.863Z,4.57
2018-12-22T14:56:37.005Z,5.03
2018-12-22T14:59:06.101Z,5.67
2018-12-22T15:01:34.609Z,7.47
2018-12-22T15:04:04.787Z,5.03
2018-12-22T15:06:33.511Z,5.60
2018-12-22T15:09:03.105Z,8.00
2018-12-22T15:11:31.599Z,8.87
2018-12-22T15:14:00.098Z,8.03
2018-12-22T15:16:30.467Z,7.87
2018-12-22T15:18:59.303Z,8.00
2018-12-22T15:21:27.943Z,11.13
2018-12-22T15:23:56.714Z,6.77
2018-12-22T15:26:25.668Z,6.53
2018-12-22T15:28:54.161Z,4.63
2018-12-22T15:31:22.724Z,8.37
2018-12-22T15:33:51.350Z,6.93
2018-12-22T15:36:19.926Z,8.63
2018-12-22T15:38:48.432Z,7.23
2018-12-22T15:41:16.935Z,10.50
2018-12-22T15:43:45.392Z,5.33
2018-12-22T15:46:13.994Z,8.10
2018-12-22T15:48:42.514Z,6.33
2018-12-22T15:51:11.004Z,6.90
2018-12-22T15:53:39.469Z,6.90
2018-12-22T15:56:07.947Z,7.23
2018-12-22T15:58:36.768Z,10.27
2018-12-22T16:01:06.038Z,5.20
2018-12-22T16:03:34.530Z,5.40
2018-12-22T16:06:05.172Z,5.40
2018-12-22T16:08:33.733Z,4.03
2018-12-22T16:11:04.006Z,5.20
2018-12-22T16:13:32.890Z,6.43
2018-12-22T16:16:03.678Z,5.83
2018-12-22T16:18:32.162Z,6.13
2018-12-22T16:21:00.634Z,6.67
2018-12-22T16:23:29.113Z,10.80
2018-12-22T16:25:57.697Z,7.33
2018-12-22T16:28:29.375Z,5.90
2018-12-22T16:30:59.205Z,6.23
2018-12-22T16:33:27.784Z,12.63
2018-12-22T16:35:56.340Z,11.33
2018-12-22T16:38:24.941Z,6.17
2018-12-22T16:40:53.517Z,9.70
2018-12-22T16:43:22.088Z,8.90
2018-12-22T16:45:52.067Z,9.60
2018-12-22T16:48:23.000Z,5.67
2018-12-22T16:50:51.645Z,7.83
2018-12-22T16:53:20.264Z,9.73
2018-12-22T16:55:48.780Z,12.90
2018-12-22T16:58:22.394Z,7.50
2018-12-22T17:01:16.637Z,9.83
2018-12-22T17:03:45.440Z,10.87
2018-12-22T17:06:15.275Z,6.00
2018-12-22T17:08:44.044Z,7.17
2018-12-22T17:11:12.629Z,10.53
2018-12-22T17:13:41.609Z,6.87
2018-12-22T17:16:11.114Z,10.27
2018-12-22T17:18:39.619Z,11.30
2018-12-22T17:21:20.192Z,9.67
2018-12-22T17:23:54.638Z,8.50
2018-12-22T17:26:25.115Z,11.50
2018-12-22T17:28:53.622Z,7.20
2018-12-22T17:31:22.092Z,11.03
2018-12-22T17:33:50.646Z,11.77
2018-12-22T17:36:19.351Z,9.83
2018-12-22T17:38:47.924Z,9.37
2018-12-22T17:41:16.427Z,12.13
2018-12-22T17:43:46.868Z,11.47
2018-12-22T17:46:15.793Z,13.17
2018-12-22T17:48:44.301Z,11.50
2018-12-22T17:51:12.937Z,10.63
2018-12-22T17:53:41.492Z,9.63
2018-12-22T17:56:10.108Z,11.07
2018-12-22T17:58:38.691Z,11.83
2018-12-22T18:01:07.256Z,14.43
2018-12-22T18:03:42.645Z,7.77
2018-12-22T18:06:11.122Z,14.97
2018-12-22T18:08:40.134Z,10.30
2018-12-22T18:11:08.670Z,9.50
2018-12-22T18:13:37.193Z,9.67
2018-12-22T18:16:05.708Z,13.70
2018-12-22T18:18:34.453Z,13.73
2018-12-22T18:21:04.600Z,10.77
2018-12-22T18:23:33.151Z,16.80
2018-12-22T18:26:03.679Z,10.30
2018-12-22T18:28:32.191Z,10.37
2018-12-22T18:31:00.673Z,11.23
2018-12-22T18:33:35.902Z,13.67
2018-12-22T18:35:59.917Z,14.50
2018-12-22T18:38:28.642Z,13.87
2018-12-22T18:40:57.170Z,16.97
2018-12-22T18:43:26.130Z,19.97
2018-12-22T18:45:54.667Z,17.20
2018-12-22T18:48:23.516Z,14.90
2018-12-22T18:50:52.076Z,13.67
2018-12-22T18:53:20.591Z,11.17
2018-12-22T18:55:49.096Z,9.63
2018-12-22T18:58:17.668Z,9.73
2018-12-22T19:00:46.145Z,8.47
2018-12-22T19:03:14.720Z,8.27
2018-12-22T19:05:43.231Z,5.13
2018-12-22T19:08:14.912Z,7.17
2018-12-22T19:10:53.751Z,6.10
2018-12-22T19:13:22.437Z,6.67
2018-12-22T19:15:50.945Z,6.17
2018-12-22T19:18:19.449Z,4.40
2018-12-22T19:20:53.798Z,4.87
2018-12-22T19:23:24.364Z,3.53
2018-12-22T19:25:53.077Z,5.57
2018-12-22T19:28:21.562Z,3.63
2018-12-22T19:30:50.085Z,4.93
2018-12-22T19:33:19.311Z,3.10
2018-12-22T19:35:47.844Z,3.30
2018-12-22T19:38:17.256Z,3.03
2018-12-22T19:40:46.193Z,3.60
2018-12-22T19:43:14.923Z,4.20
2018-12-22T19:45:43.452Z,3.93
2018-12-22T19:48:12.019Z,3.53
2018-12-22T19:50:40.688Z,3.97
2018-12-22T19:53:09.566Z,5.70
2018-12-22T19:55:38.152Z,4.30
2018-12-22T19:58:07.350Z,4.23
2018-12-22T20:00:35.970Z,4.03
2018-12-22T20:03:05.257Z,8.47
2018-12-22T20:05:33.968Z,6.13
2018-12-22T20:08:03.736Z,7.43
2018-12-22T20:10:32.522Z,5.37
2018-12-22T20:13:02.802Z,4.90
2018-12-22T20:15:31.430Z,5.23
2018-12-22T20:18:00.114Z,5.80
2018-12-22T20:20:29.713Z,8.53
2018-12-22T20:22:58.490Z,5.30
2018-12-22T20:25:27.013Z,7.97
2018-12-22T20:27:55.521Z,7.93
2018-12-22T20:30:25.091Z,7.77
2018-12-22T20:32:53.658Z,7.60
2018-12-22T20:35:22.203Z,9.57
2018-12-22T20:37:50.898Z,8.33
2018-12-22T20:40:19.500Z,10.33
2018-12-22T20:42:48.085Z,7.87
2018-12-22T20:45:16.598Z,11.13
2018-12-22T20:47:45.159Z,10.67
2018-12-22T20:50:13.861Z,8.90
2018-12-22T20:52:42.503Z,8.57
2018-12-22T20:55:11.103Z,10.60
2018-12-22T20:57:40.206Z,7.10
2018-12-22T21:00:09.677Z,5.80
2018-12-22T21:02:38.654Z,10.23
2018-12-22T21:05:07.430Z,7.77
2018-12-22T21:07:36.038Z,5.70
2018-12-22T21:10:05.169Z,7.93
2018-12-22T21:12:33.708Z,7.20
2018-12-22T21:15:04.039Z,9.33
2018-12-22T21:17:32.591Z,7.37
2018-12-22T21:20:02.731Z,6.73
2018-12-22T21:22:31.298Z,9.13
2018-12-22T21:25:00.418Z,9.57
2018-12-22T21:27:28.949Z,13.73
2018-12-22T21:29:57.577Z,16.17
2018-12-22T21:32:26.112Z,10.33
2018-12-22T21:34:54.659Z,14.27
2018-12-22T21:37:23.206Z,16.67
2018-12-22T21:39:51.814Z,16.23
2018-12-22T21:42:20.374Z,15.10
2018-12-22T21:44:48.899Z,14.43
2018-12-22T21:47:17.460Z,18.43
2018-12-22T21:49:46.000Z,14.90
2018-12-22T21:52:14.493Z,15.53
2018-12-22T21:54:43.911Z,15.33
2018-12-22T21:57:12.454Z,14.90
2018-12-22T21:59:41.228Z,12.30
2018-12-22T22:02:09.761Z,18.03
2018-12-22T22:04:38.294Z,17.67
2018-12-22T22:07:06.812Z,12.20
2018-12-22T22:09:35.738Z,10.37
2018-12-22T22:12:06.061Z,8.97
2018-12-22T22:14:34.841Z,10.30
2018-12-22T22:17:05.731Z,11.80
2018-12-22T22:19:35.964Z,10.80
2018-12-22T22:22:05.480Z,10.40
2018-12-22T22:24:34.144Z,7.03
2018-12-22T22:27:04.093Z,11.17
2018-12-22T22:29:32.635Z,9.53
2018-12-22T22:32:03.275Z,9.80
2018-12-22T22:34:31.839Z,9.20
2018-12-22T22:37:00.586Z,9.43
2018-12-22T22:39:29.093Z,10.17
2018-12-22T22:41:57.603Z,10.50
2018-12-22T22:44:26.127Z,10.07
2018-12-22T22:46:54.654Z,12.93
2018-12-22T22:49:23.527Z,12.43
2018-12-22T22:51:52.500Z,18.63
2018-12-22T22:54:21.076Z,10.80
2018-12-22T22:56:49.622Z,12.33
2018-12-22T22:59:18.149Z,14.30
2018-12-22T23:01:47.079Z,17.80
2018-12-22T23:04:15.554Z,19.40
2018-12-22T23:06:44.054Z,15.90
2018-12-22T23:09:12.553Z,16.43
2018-12-22T23:11:41.060Z,17.90
2018-12-22T23:14:09.512Z,15.33
2018-12-22T23:16:38.171Z,15.83
2018-12-22T23:19:06.743Z,18.20
2018-12-22T23:21:35.755Z,16.83
2018-12-22T23:24:05.650Z,16.60
2018-12-22T23:26:34.155Z,17.97
2018-12-22T23:29:04.224Z,19.33
2018-12-22T23:31:32.797Z,14.83
2018-12-22T23:34:03.636Z,18.10
2018-12-22T23:36:32.087Z,18.77
2018-12-22T23:39:00.585Z,14.53
2018-12-22T23:41:29.089Z,20.87
2018-12-22T23:43:57.574Z,19.57
2018-12-22T23:46:26.088Z,21.83
2018-12-22T23:48:54.568Z,20.07
2018-12-22T23:51:23.066Z,18.67
2018-12-22T23:53:51.689Z,24.53
2018-12-22T23:56:20.324Z,24.13
2018-12-22T23:58:48.874Z,19.23
